createdAt,value
2018-05-16T00:01:44.951Z,4.27
2018-05-16T00:04:12.993Z,4.47
2018-05-16T00:06:41.329Z,3.77
2018-05-16T00:09:09.443Z,4.40
2018-05-16T00:11:37.463Z,4.70
2018-05-16T00:14:05.449Z,4.40
2018-05-16T00:16:33.362Z,3.87
2018-05-16T00:19:01.406Z,3.80
2018-05-16T00:21:29.405Z,3.87
2018-05-16T00:23:57.647Z,2.77
2018-05-16T00:26:25.704Z,3.50
2018-05-16T00:28:54.266Z,3.87
2018-05-16T00:31:22.957Z,3.30
2018-05-16T00:33:51.478Z,3.73
2018-05-16T00:36:20.034Z,2.43
2018-05-16T00:38:48.010Z,3.20
2018-05-16T00:41:16.000Z,3.23
2018-05-16T00:43:43.960Z,3.20
2018-05-16T00:46:12.007Z,3.40
2018-05-16T00:48:40.522Z,3.43
2018-05-16T00:51:20.997Z,2.63
2018-05-16T00:53:49.610Z,2.93
2018-05-16T00:56:17.903Z,3.23
2018-05-16T00:58:46.280Z,3.20
2018-05-16T01:01:14.806Z,3.40
2018-05-16T01:03:43.050Z,3.07
2018-05-16T01:06:11.015Z,3.47
2018-05-16T01:08:39.381Z,3.20
2018-05-16T01:11:07.968Z,3.50
2018-05-16T01:13:36.753Z,3.80
2018-05-16T01:16:05.424Z,3.60
2018-05-16T01:18:33.623Z,3.00
2018-05-16T01:21:02.080Z,3.10
2018-05-16T01:23:30.421Z,2.70
2018-05-16T01:25:59.092Z,2.90
2018-05-16T01:28:27.689Z,2.67
2018-05-16T01:30:56.098Z,2.97
2018-05-16T01:33:24.442Z,2.70
2018-05-16T01:35:52.869Z,3.50
2018-05-16T01:38:21.560Z,3.40
2018-05-16T01:40:50.194Z,3.17
2018-05-16T01:43:18.709Z,3.90
2018-05-16T01:45:47.598Z,4.53
2018-05-16T01:48:15.973Z,4.07
2018-05-16T01:50:45.038Z,4.57
2018-05-16T01:53:13.799Z,3.00
2018-05-16T01:55:42.449Z,4.30
2018-05-16T01:58:11.445Z,4.20
2018-05-16T02:00:40.015Z,4.20
2018-05-16T02:03:08.232Z,4.13
2018-05-16T02:05:36.488Z,5.20
2018-05-16T02:08:04.519Z,3.53
2018-05-16T02:10:32.912Z,3.60
2018-05-16T02:13:00.950Z,3.50
2018-05-16T02:15:29.639Z,4.13
2018-05-16T02:17:57.972Z,3.40
2018-05-16T02:20:25.956Z,3.47
2018-05-16T02:22:53.915Z,4.23
2018-05-16T02:25:21.903Z,3.93
2018-05-16T02:27:49.957Z,3.23
2018-05-16T02:30:18.496Z,4.60
2018-05-16T02:32:46.695Z,3.23
2018-05-16T02:35:15.260Z,3.40
2018-05-16T02:37:43.561Z,2.70
2018-05-16T02:40:12.130Z,3.87
2018-05-16T02:42:40.422Z,3.10
2018-05-16T02:45:09.094Z,3.40
2018-05-16T02:47:37.588Z,3.40
2018-05-16T02:50:06.248Z,3.40
2018-05-16T02:52:34.636Z,3.53
2018-05-16T02:55:03.135Z,3.70
2018-05-16T02:57:31.511Z,3.67
2018-05-16T03:00:00.078Z,3.80
2018-05-16T03:02:28.438Z,3.43
2018-05-16T03:04:56.953Z,3.00
2018-05-16T03:07:25.615Z,4.40
2018-05-16T03:09:53.998Z,3.60
2018-05-16T03:12:22.487Z,3.67
2018-05-16T03:14:50.837Z,2.90
2018-05-16T03:17:18.839Z,3.50
2018-05-16T03:19:46.831Z,3.50
2018-05-16T03:22:15.175Z,2.53
2018-05-16T03:24:43.450Z,3.23
2018-05-16T03:27:11.976Z,2.97
2018-05-16T03:29:40.483Z,3.60
2018-05-16T03:32:08.810Z,2.93
2018-05-16T03:34:37.449Z,3.43
2018-05-16T03:37:05.761Z,3.40
2018-05-16T03:39:34.005Z,3.20
2018-05-16T03:42:02.391Z,4.10
2018-05-16T03:44:30.965Z,3.30
2018-05-16T03:46:59.368Z,3.57
2018-05-16T03:49:27.829Z,3.60
2018-05-16T03:51:56.298Z,3.60
2018-05-16T03:54:24.493Z,2.97
2018-05-16T03:56:52.443Z,3.60
2018-05-16T03:59:32.770Z,3.53
2018-05-16T04:02:13.493Z,3.13
2018-05-16T04:04:41.956Z,4.00
2018-05-16T04:07:10.366Z,4.23
2018-05-16T04:09:39.551Z,4.10
2018-05-16T04:12:08.217Z,3.23
2018-05-16T04:14:36.979Z,3.47
2018-05-16T04:17:05.523Z,3.50
2018-05-16T04:19:34.267Z,3.33
2018-05-16T04:22:02.453Z,3.17
2018-05-16T04:24:30.713Z,3.43
2018-05-16T04:26:59.120Z,4.13
2018-05-16T04:29:27.321Z,4.40
2018-05-16T04:31:55.842Z,3.10
2018-05-16T04:34:24.336Z,4.30
2018-05-16T04:36:53.025Z,3.60
2018-05-16T04:39:21.509Z,4.47
2018-05-16T04:41:50.253Z,4.20
2018-05-16T04:44:19.006Z,3.30
2018-05-16T04:46:47.471Z,3.80
2018-05-16T04:49:15.727Z,4.00
2018-05-16T04:51:44.036Z,3.30
2018-05-16T04:54:12.313Z,4.40
2018-05-16T04:56:40.708Z,4.10
2018-05-16T04:59:09.397Z,3.47
2018-05-16T05:01:37.919Z,2.73
2018-05-16T05:04:06.132Z,2.73
2018-05-16T05:06:34.287Z,2.87
2018-05-16T05:09:02.303Z,2.80
2018-05-16T05:11:30.249Z,2.37
2018-05-16T05:13:58.281Z,3.67
2018-05-16T05:16:26.470Z,2.37
2018-05-16T05:18:54.433Z,3.37
2018-05-16T05:21:22.434Z,3.40
2018-05-16T05:23:50.494Z,2.63
2018-05-16T05:26:18.493Z,2.43
2018-05-16T05:28:46.474Z,10.73
2018-05-16T05:31:14.467Z,6.30
2018-05-16T05:33:42.516Z,3.80
2018-05-16T05:36:10.553Z,4.17
2018-05-16T05:38:38.539Z,5.20
2018-05-16T05:41:06.502Z,3.53
2018-05-16T05:43:34.501Z,4.07
2018-05-16T05:46:02.481Z,3.23
2018-05-16T05:48:30.472Z,2.07
2018-05-16T05:50:58.483Z,3.10
2018-05-16T05:53:26.487Z,4.57
2018-05-16T05:55:54.539Z,2.40
2018-05-16T05:58:22.592Z,2.20
2018-05-16T06:00:50.591Z,1.97
2018-05-16T06:03:18.694Z,3.00
2018-05-16T06:05:46.705Z,3.27
2018-05-16T06:08:14.697Z,3.63
2018-05-16T06:10:42.686Z,2.50
2018-05-16T06:13:10.706Z,3.20
2018-05-16T06:15:38.683Z,5.03
2018-05-16T06:18:07.047Z,3.33
2018-05-16T06:20:35.053Z,2.20
2018-05-16T06:23:03.114Z,3.67
2018-05-16T06:25:31.143Z,2.10
2018-05-16T06:27:59.229Z,1.73
2018-05-16T06:30:27.238Z,2.50
2018-05-16T06:32:55.303Z,1.43
2018-05-16T06:35:23.936Z,1.10
2018-05-16T06:37:52.055Z,1.87
2018-05-16T06:40:20.136Z,2.03
2018-05-16T06:42:48.228Z,1.50
2018-05-16T06:45:16.305Z,2.67
2018-05-16T06:47:44.375Z,3.13
2018-05-16T06:50:12.368Z,2.80
2018-05-16T06:52:40.412Z,3.60
2018-05-16T06:55:08.417Z,2.30
2018-05-16T06:57:36.537Z,1.97
2018-05-16T07:00:04.578Z,1.50
2018-05-16T07:02:32.647Z,2.07
2018-05-16T07:05:00.686Z,1.90
2018-05-16T07:07:28.727Z,1.70
2018-05-16T07:09:56.795Z,2.33
2018-05-16T07:12:24.935Z,1.30
2018-05-16T07:14:53.012Z,1.27
2018-05-16T07:17:21.139Z,1.10
2018-05-16T07:19:50.798Z,2.50
2018-05-16T07:22:18.976Z,1.17
2018-05-16T07:24:47.092Z,1.40
2018-05-16T07:27:15.182Z,1.00
2018-05-16T07:29:43.254Z,2.13
2018-05-16T07:32:11.288Z,1.13
2018-05-16T07:34:39.438Z,2.20
2018-05-16T07:37:07.461Z,1.67
2018-05-16T07:39:35.610Z,1.13
2018-05-16T07:42:03.718Z,1.30
2018-05-16T07:44:31.782Z,1.20
2018-05-16T07:46:59.878Z,1.20
2018-05-16T07:49:27.974Z,1.90
2018-05-16T07:51:56.041Z,1.53
2018-05-16T07:54:24.128Z,1.80
2018-05-16T07:56:52.187Z,1.80
2018-05-16T07:59:20.258Z,1.53
2018-05-16T08:01:48.405Z,1.43
2018-05-16T08:04:16.439Z,1.53
2018-05-16T08:06:44.505Z,1.23
2018-05-16T08:09:12.552Z,1.60
2018-05-16T08:11:40.560Z,1.90
2018-05-16T08:14:08.673Z,1.60
2018-05-16T08:16:36.770Z,1.77
2018-05-16T08:19:04.871Z,1.20
2018-05-16T08:21:33.353Z,1.03
2018-05-16T08:24:01.484Z,1.73
2018-05-16T08:26:29.566Z,1.57
2018-05-16T08:28:57.612Z,1.40
2018-05-16T08:31:25.555Z,1.17
2018-05-16T08:33:53.549Z,1.30
2018-05-16T08:36:21.591Z,1.20
2018-05-16T08:38:49.607Z,2.40
2018-05-16T08:41:17.633Z,1.87
2018-05-16T08:43:45.710Z,1.70
2018-05-16T08:46:13.836Z,1.90
2018-05-16T08:48:42.804Z,2.10
2018-05-16T08:51:10.880Z,1.63
2018-05-16T08:53:39.852Z,1.27
2018-05-16T08:56:08.987Z,1.47
2018-05-16T08:58:37.093Z,2.40
2018-05-16T09:01:05.240Z,2.17
2018-05-16T09:03:33.257Z,1.47
2018-05-16T09:06:01.212Z,1.70
2018-05-16T09:08:29.218Z,1.40
2018-05-16T09:10:57.231Z,1.73
2018-05-16T09:13:25.170Z,1.57
2018-05-16T09:15:53.158Z,1.33
2018-05-16T09:18:21.173Z,1.40
2018-05-16T09:20:49.206Z,1.60
2018-05-16T09:23:17.440Z,1.63
2018-05-16T09:25:45.463Z,1.50
2018-05-16T09:28:13.463Z,1.67
2018-05-16T09:30:41.458Z,1.57
2018-05-16T09:33:09.515Z,1.40
2018-05-16T09:35:37.478Z,1.50
2018-05-16T09:38:05.483Z,2.10
2018-05-16T09:40:33.486Z,2.07
2018-05-16T09:43:01.522Z,1.60
2018-05-16T09:45:29.558Z,1.13
2018-05-16T09:47:57.559Z,1.83
2018-05-16T09:50:25.503Z,1.80
2018-05-16T09:52:53.713Z,1.40
2018-05-16T09:55:21.834Z,1.80
2018-05-16T09:57:49.890Z,1.83
2018-05-16T10:00:18.098Z,2.10
2018-05-16T10:02:46.200Z,1.30
2018-05-16T10:05:14.234Z,2.03
2018-05-16T10:07:42.231Z,1.80
2018-05-16T10:10:10.328Z,1.97
2018-05-16T10:12:38.392Z,1.70
2018-05-16T10:15:06.396Z,1.30
2018-05-16T10:17:34.400Z,1.53
2018-05-16T10:20:02.547Z,1.90
2018-05-16T10:22:30.614Z,2.30
2018-05-16T10:24:58.908Z,1.73
2018-05-16T10:27:26.926Z,1.70
2018-05-16T10:29:54.955Z,2.50
2018-05-16T10:32:22.965Z,1.67
2018-05-16T10:34:50.969Z,1.00
2018-05-16T10:37:19.013Z,0.90
2018-05-16T10:39:47.086Z,1.93
2018-05-16T10:42:15.071Z,1.57
2018-05-16T10:44:43.083Z,1.40
2018-05-16T10:47:11.091Z,1.30
2018-05-16T10:49:39.178Z,4.43
2018-05-16T10:52:07.237Z,1.50
2018-05-16T10:54:35.302Z,1.03
2018-05-16T10:57:03.370Z,1.77
2018-05-16T10:59:31.339Z,1.63
2018-05-16T11:01:59.337Z,1.10
2018-05-16T11:04:27.371Z,1.20
2018-05-16T11:06:55.418Z,1.10
2018-05-16T11:09:23.464Z,1.13
2018-05-16T11:11:51.381Z,1.17
2018-05-16T11:14:19.371Z,1.03
2018-05-16T11:16:47.400Z,2.17
2018-05-16T11:19:15.322Z,1.33
2018-05-16T11:21:43.329Z,0.97
2018-05-16T11:24:12.520Z,2.33
2018-05-16T11:26:40.785Z,1.10
2018-05-16T11:29:08.929Z,1.77
2018-05-16T11:31:36.993Z,1.00
2018-05-16T11:34:04.998Z,1.20
2018-05-16T11:36:33.041Z,1.20
2018-05-16T11:39:00.995Z,2.73
2018-05-16T11:41:29.030Z,1.50
2018-05-16T11:43:57.037Z,1.47
2018-05-16T11:46:25.146Z,1.23
2018-05-16T11:48:53.245Z,1.00
2018-05-16T11:51:21.185Z,1.77
2018-05-16T11:53:49.178Z,1.20
2018-05-16T11:56:17.238Z,1.03
2018-05-16T11:58:45.310Z,1.10
2018-05-16T12:01:13.307Z,2.03
2018-05-16T12:03:41.307Z,1.07
2018-05-16T12:06:09.305Z,1.70
2018-05-16T12:08:37.277Z,1.00
2018-05-16T12:11:05.268Z,1.03
2018-05-16T12:13:33.350Z,1.47
2018-05-16T12:16:01.401Z,1.07
2018-05-16T12:18:29.435Z,1.73
2018-05-16T12:20:57.461Z,0.97
2018-05-16T12:23:25.500Z,1.57
2018-05-16T12:25:53.622Z,1.40
2018-05-16T12:28:22.119Z,1.50
2018-05-16T12:30:50.097Z,1.30
2018-05-16T12:33:18.168Z,1.20
2018-05-16T12:35:46.216Z,1.17
2018-05-16T12:38:14.243Z,1.10
2018-05-16T12:40:42.220Z,1.40
2018-05-16T12:43:17.714Z,1.30
2018-05-16T12:45:45.842Z,1.30
2018-05-16T12:48:13.883Z,1.37
2018-05-16T12:50:41.895Z,1.60
2018-05-16T12:53:09.905Z,1.30
2018-05-16T12:55:37.979Z,1.37
2018-05-16T12:58:05.968Z,1.40
2018-05-16T13:00:33.996Z,1.50
2018-05-16T13:03:01.985Z,0.97
2018-05-16T13:05:29.984Z,2.20
2018-05-16T13:07:58.056Z,1.27
2018-05-16T13:10:26.205Z,1.40
2018-05-16T13:12:54.257Z,1.33
2018-05-16T13:15:22.246Z,1.07
2018-05-16T13:17:50.376Z,1.93
2018-05-16T13:20:18.372Z,1.57
2018-05-16T13:22:46.380Z,1.10
2018-05-16T13:25:14.494Z,2.10
2018-05-16T13:27:42.498Z,1.30
2018-05-16T13:30:10.621Z,1.23
2018-05-16T13:32:38.697Z,1.57
2018-05-16T13:35:06.712Z,1.10
2018-05-16T13:37:34.668Z,1.13
2018-05-16T13:40:02.663Z,1.13
2018-05-16T13:42:30.661Z,1.40
2018-05-16T13:44:58.666Z,1.43
2018-05-16T13:47:26.719Z,1.60
2018-05-16T13:49:54.714Z,1.97
2018-05-16T13:52:22.730Z,1.67
2018-05-16T13:54:50.742Z,1.40
2018-05-16T13:57:18.737Z,1.60
2018-05-16T13:59:46.745Z,1.60
2018-05-16T14:02:14.781Z,2.23
2018-05-16T14:04:42.742Z,1.03
2018-05-16T14:07:10.720Z,1.10
2018-05-16T14:09:38.686Z,1.17
2018-05-16T14:12:06.735Z,1.77
2018-05-16T14:14:34.701Z,1.77
2018-05-16T14:17:02.733Z,1.13
2018-05-16T14:19:30.735Z,1.50
2018-05-16T14:21:58.787Z,1.47
2018-05-16T14:24:26.882Z,1.40
2018-05-16T14:26:54.843Z,1.40
2018-05-16T14:29:22.865Z,2.50
2018-05-16T14:31:51.309Z,1.60
2018-05-16T14:34:19.294Z,1.73
2018-05-16T14:36:47.317Z,1.43
2018-05-16T14:39:15.362Z,1.50
2018-05-16T14:41:43.394Z,1.43
2018-05-16T14:44:11.460Z,1.33
2018-05-16T14:46:39.481Z,1.60
2018-05-16T14:49:07.490Z,1.23
2018-05-16T14:51:35.483Z,1.70
2018-05-16T14:54:03.566Z,1.60
2018-05-16T14:56:31.605Z,1.50
2018-05-16T14:58:59.643Z,1.50
2018-05-16T15:01:27.671Z,2.27
2018-05-16T15:03:55.725Z,1.90
2018-05-16T15:06:23.867Z,1.50
2018-05-16T15:08:51.839Z,2.20
2018-05-16T15:11:19.834Z,1.87
2018-05-16T15:13:47.885Z,1.73
2018-05-16T15:16:15.959Z,2.43
2018-05-16T15:18:43.955Z,1.60
2018-05-16T15:21:12.064Z,1.83
2018-05-16T15:23:40.065Z,1.23
2018-05-16T15:26:08.049Z,1.70
2018-05-16T15:28:36.084Z,2.00
2018-05-16T15:31:04.011Z,2.43
2018-05-16T15:33:32.229Z,1.77
2018-05-16T15:36:00.250Z,2.30
2018-05-16T15:38:28.283Z,1.70
2018-05-16T15:40:56.314Z,1.33
2018-05-16T15:43:24.320Z,1.40
2018-05-16T15:45:52.291Z,1.43
2018-05-16T15:48:20.329Z,1.90
2018-05-16T15:50:48.346Z,1.70
2018-05-16T15:53:16.396Z,2.43
2018-05-16T15:55:44.388Z,1.73
2018-05-16T15:58:12.389Z,2.00
2018-05-16T16:00:40.356Z,1.93
2018-05-16T16:03:08.399Z,2.10
2018-05-16T16:05:36.442Z,1.60
2018-05-16T16:08:04.532Z,2.23
2018-05-16T16:10:32.509Z,1.87
2018-05-16T16:13:00.473Z,2.10
2018-05-16T16:15:28.582Z,2.60
2018-05-16T16:17:56.588Z,2.20
2018-05-16T16:20:24.514Z,2.70
2018-05-16T16:22:52.469Z,3.70
2018-05-16T16:25:20.460Z,4.20
2018-05-16T16:27:48.485Z,4.80
2018-05-16T16:30:16.477Z,3.30
2018-05-16T16:32:44.516Z,3.30
2018-05-16T16:35:12.980Z,3.03
2018-05-16T16:37:40.978Z,3.03
2018-05-16T16:40:09.099Z,3.10
2018-05-16T16:42:37.086Z,2.60
2018-05-16T16:45:05.150Z,2.70
2018-05-16T16:47:33.172Z,2.80
2018-05-16T16:50:01.188Z,2.80
2018-05-16T16:52:29.232Z,2.33
2018-05-16T16:54:57.228Z,3.73
2018-05-16T16:57:25.231Z,3.30
2018-05-16T16:59:53.228Z,3.47
2018-05-16T17:02:21.241Z,4.30
2018-05-16T17:04:49.299Z,2.63
2018-05-16T17:07:17.531Z,3.20
2018-05-16T17:09:45.500Z,3.20
2018-05-16T17:12:13.534Z,2.77
2018-05-16T17:14:41.599Z,2.20
2018-05-16T17:17:09.602Z,2.17
2018-05-16T17:19:37.631Z,2.63
2018-05-16T17:22:05.603Z,2.80
2018-05-16T17:24:33.584Z,4.00
2018-05-16T17:27:01.618Z,3.23
2018-05-16T17:29:29.619Z,3.30
2018-05-16T17:31:57.664Z,3.60
2018-05-16T17:34:25.684Z,3.30
2018-05-16T17:36:53.684Z,4.40
2018-05-16T17:39:21.674Z,6.00
2018-05-16T17:41:50.212Z,3.27
2018-05-16T17:44:18.219Z,4.50
2018-05-16T17:46:46.221Z,4.23
2018-05-16T17:49:14.259Z,3.63
2018-05-16T17:51:42.280Z,3.03
2018-05-16T17:54:10.291Z,3.27
2018-05-16T17:56:38.373Z,3.13
2018-05-16T17:59:06.378Z,3.53
2018-05-16T18:01:34.321Z,3.10
2018-05-16T18:04:02.243Z,3.27
2018-05-16T18:06:30.261Z,3.70
2018-05-16T18:08:58.421Z,2.93
2018-05-16T18:11:26.492Z,2.87
2018-05-16T18:14:06.387Z,4.00
2018-05-16T18:16:46.185Z,3.30
2018-05-16T18:19:14.206Z,3.90
2018-05-16T18:21:43.175Z,3.03
2018-05-16T18:24:11.128Z,2.93
2018-05-16T18:26:39.105Z,3.50
2018-05-16T18:29:07.113Z,3.00
2018-05-16T18:31:35.141Z,3.20
2018-05-16T18:34:03.130Z,2.90
2018-05-16T18:36:31.217Z,3.63
2018-05-16T18:38:59.333Z,3.37
2018-05-16T18:41:27.390Z,5.17
2018-05-16T18:43:55.450Z,4.20
2018-05-16T18:46:23.555Z,4.87
2018-05-16T18:48:51.565Z,5.10
2018-05-16T18:51:19.607Z,5.10
2018-05-16T18:53:47.602Z,5.57
2018-05-16T18:56:15.658Z,5.30
2018-05-16T18:58:43.698Z,5.07
2018-05-16T19:01:11.706Z,4.67
2018-05-16T19:03:39.662Z,4.53
2018-05-16T19:06:07.658Z,4.90
2018-05-16T19:08:35.623Z,4.97
2018-05-16T19:11:03.673Z,3.17
2018-05-16T19:13:31.698Z,1.37
2018-05-16T19:15:59.700Z,2.00
2018-05-16T19:18:27.746Z,2.43
2018-05-16T19:20:55.800Z,2.40
2018-05-16T19:23:24.465Z,2.10
2018-05-16T19:25:52.773Z,2.23
2018-05-16T19:28:21.071Z,2.67
2018-05-16T19:30:49.557Z,2.77
2018-05-16T19:33:17.957Z,2.17
2018-05-16T19:35:45.961Z,3.30
2018-05-16T19:38:13.995Z,2.40
2018-05-16T19:40:42.236Z,2.17
2018-05-16T19:43:10.190Z,1.30
2018-05-16T19:45:38.169Z,1.47
2018-05-16T19:48:06.222Z,1.13
2018-05-16T19:50:34.207Z,2.03
2018-05-16T19:53:02.291Z,2.20
2018-05-16T19:55:30.278Z,3.13
2018-05-16T19:57:58.297Z,3.60
2018-05-16T20:00:26.285Z,2.83
2018-05-16T20:02:54.304Z,3.40
2018-05-16T20:05:22.391Z,3.57
2018-05-16T20:07:50.401Z,3.37
2018-05-16T20:10:18.303Z,2.90
2018-05-16T20:12:46.286Z,2.30
2018-05-16T20:15:14.327Z,2.60
2018-05-16T20:17:42.311Z,3.17
2018-05-16T20:20:10.377Z,2.50
2018-05-16T20:22:38.417Z,2.50
2018-05-16T20:25:06.479Z,3.03
2018-05-16T20:27:34.517Z,2.83
2018-05-16T20:30:02.481Z,2.60
2018-05-16T20:32:30.464Z,2.90
2018-05-16T20:34:58.468Z,2.70
2018-05-16T20:37:26.597Z,3.30
2018-05-16T20:39:54.687Z,2.33
2018-05-16T20:42:23.103Z,3.00
2018-05-16T20:44:51.055Z,2.03
2018-05-16T20:47:19.180Z,2.10
2018-05-16T20:49:47.201Z,2.60
2018-05-16T20:52:15.241Z,4.40
2018-05-16T20:54:43.255Z,2.90
2018-05-16T20:57:11.315Z,3.23
2018-05-16T20:59:39.283Z,4.10
2018-05-16T21:02:07.302Z,3.63
2018-05-16T21:04:35.316Z,3.73
2018-05-16T21:07:03.342Z,3.17
2018-05-16T21:09:31.323Z,2.90
2018-05-16T21:11:59.332Z,3.27
2018-05-16T21:14:27.296Z,3.80
2018-05-16T21:16:55.273Z,3.17
2018-05-16T21:19:23.278Z,3.30
2018-05-16T21:21:51.295Z,3.30
2018-05-16T21:24:19.332Z,2.87
2018-05-16T21:26:47.353Z,2.70
2018-05-16T21:29:15.354Z,3.40
2018-05-16T21:31:43.399Z,2.70
2018-05-16T21:34:11.424Z,3.00
2018-05-16T21:36:39.443Z,2.57
2018-05-16T21:39:07.449Z,2.80
2018-05-16T21:41:35.442Z,2.53
2018-05-16T21:44:04.092Z,2.57
2018-05-16T21:46:32.075Z,2.77
2018-05-16T21:49:00.186Z,2.80
2018-05-16T21:51:28.143Z,2.60
2018-05-16T21:53:56.209Z,1.87
2018-05-16T21:56:24.247Z,2.17
2018-05-16T21:58:52.214Z,2.40
2018-05-16T22:01:20.219Z,2.60
2018-05-16T22:03:48.201Z,2.60
2018-05-16T22:06:16.179Z,2.83
2018-05-16T22:08:44.207Z,2.40
2018-05-16T22:11:12.171Z,3.50
2018-05-16T22:13:40.115Z,2.40
2018-05-16T22:16:08.114Z,2.27
2018-05-16T22:18:36.079Z,2.70
2018-05-16T22:21:04.107Z,4.40
2018-05-16T22:23:32.141Z,2.60
2018-05-16T22:26:00.149Z,2.87
2018-05-16T22:28:28.197Z,2.90
2018-05-16T22:31:01.942Z,4.30
2018-05-16T22:33:35.421Z,2.47
2018-05-16T22:36:09.145Z,2.00
2018-05-16T22:38:43.504Z,2.80
2018-05-16T22:41:17.115Z,2.40
2018-05-16T22:43:47.616Z,2.23
2018-05-16T22:46:16.103Z,2.40
2018-05-16T22:48:44.819Z,2.13
2018-05-16T22:51:12.835Z,2.47
2018-05-16T22:53:40.815Z,1.83
2018-05-16T22:56:08.820Z,2.67
2018-05-16T22:58:36.781Z,2.50
2018-05-16T23:01:04.772Z,2.47
2018-05-16T23:03:32.750Z,2.50
2018-05-16T23:06:00.634Z,2.60
2018-05-16T23:08:28.631Z,1.90
2018-05-16T23:10:56.595Z,2.33
2018-05-16T23:13:24.560Z,2.57
2018-05-16T23:15:52.559Z,2.53
2018-05-16T23:18:20.600Z,1.90
2018-05-16T23:20:48.539Z,2.20
2018-05-16T23:23:16.500Z,2.40
2018-05-16T23:25:44.494Z,1.83
2018-05-16T23:28:12.475Z,1.90
2018-05-16T23:30:40.495Z,3.80
2018-05-16T23:33:08.551Z,2.60
2018-05-16T23:35:36.597Z,1.90
2018-05-16T23:38:04.585Z,2.03
2018-05-16T23:40:32.601Z,1.70
2018-05-16T23:43:00.702Z,2.03
2018-05-16T23:45:28.765Z,2.07
2018-05-16T23:47:57.034Z,1.83
2018-05-16T23:50:25.126Z,2.10
2018-05-16T23:52:53.189Z,1.53
2018-05-16T23:55:21.137Z,1.40
2018-05-16T23:57:49.129Z,1.43
